createdAt,value
2022-10-25T00:01:58.278Z,24.23
2022-10-25T00:04:27.309Z,25.07
2022-10-25T00:06:56.793Z,22.53
2022-10-25T00:09:24.951Z,23.23
2022-10-25T00:11:53.030Z,22.40
2022-10-25T00:14:21.185Z,27.53
2022-10-25T00:16:49.298Z,25.33
2022-10-25T00:19:17.342Z,26.97
2022-10-25T00:21:45.433Z,26.07
2022-10-25T00:24:15.542Z,27.80
2022-10-25T00:26:43.829Z,25.17
2022-10-25T00:29:13.382Z,28.23
2022-10-25T00:31:41.537Z,29.40
2022-10-25T00:34:09.681Z,27.70
2022-10-25T00:36:37.886Z,28.33
2022-10-25T00:39:06.119Z,29.67
2022-10-25T00:41:36.142Z,27.00
2022-10-25T00:44:52.658Z,28.70
2022-10-25T00:47:46.141Z,29.37
2022-10-25T00:50:23.307Z,30.83
2022-10-25T00:52:55.158Z,31.00
2022-10-25T00:55:25.385Z,33.43
2022-10-25T00:58:00.842Z,29.30
2022-10-25T01:00:29.022Z,29.07
2022-10-25T01:02:57.271Z,35.67
2022-10-25T01:05:25.430Z,35.27
2022-10-25T01:07:53.676Z,37.47
2022-10-25T01:10:21.884Z,32.93
2022-10-25T01:12:52.059Z,34.30
2022-10-25T01:15:26.441Z,34.20
2022-10-25T01:18:04.850Z,31.30
2022-10-25T01:21:29.733Z,35.13
2022-10-25T01:24:37.601Z,36.40
2022-10-25T01:30:53.281Z,34.30
2022-10-25T01:33:27.445Z,32.53
2022-10-25T01:36:06.301Z,39.87
2022-10-25T01:38:44.078Z,30.80
2022-10-25T01:41:23.349Z,32.80
2022-10-25T01:44:06.734Z,32.80
2022-10-25T01:46:46.206Z,30.37
2022-10-25T01:49:21.090Z,34.57
2022-10-25T01:51:49.168Z,28.50
2022-10-25T01:54:25.047Z,33.17
2022-10-25T01:57:09.424Z,35.93
2022-10-25T02:00:11.260Z,26.03
2022-10-25T02:02:58.442Z,26.67
2022-10-25T02:05:36.451Z,30.27
2022-10-25T02:08:11.314Z,31.00
2022-10-25T02:10:43.439Z,25.43
2022-10-25T02:13:21.558Z,30.17
2022-10-25T02:15:58.327Z,28.07
2022-10-25T02:21:07.070Z,27.67
2022-10-25T02:23:36.891Z,26.07
2022-10-25T02:26:08.933Z,27.20
2022-10-25T02:28:41.355Z,25.03
2022-10-25T02:31:14.462Z,26.13
2022-10-25T02:33:45.694Z,26.93
2022-10-25T02:36:17.421Z,28.60
2022-10-25T02:38:46.271Z,32.27
2022-10-25T02:41:14.540Z,31.57
2022-10-25T02:43:43.053Z,30.17
2022-10-25T02:46:15.606Z,29.97
2022-10-25T02:48:46.139Z,29.43
2022-10-25T02:51:14.891Z,32.00
2022-10-25T02:53:43.531Z,31.47
2022-10-25T02:56:15.883Z,31.77
2022-10-25T02:58:45.437Z,30.90
2022-10-25T03:01:14.418Z,37.10
2022-10-25T03:03:45.155Z,32.50
2022-10-25T03:06:16.263Z,33.77
2022-10-25T03:08:46.203Z,29.50
2022-10-25T03:11:16.758Z,29.77
2022-10-25T03:13:44.928Z,31.27
2022-10-25T03:16:13.294Z,32.93
2022-10-25T03:18:41.477Z,28.37
2022-10-25T03:21:11.018Z,31.73
2022-10-25T03:23:39.336Z,32.80
2022-10-25T03:26:07.492Z,30.13
2022-10-25T03:28:35.548Z,28.27
2022-10-25T03:31:03.734Z,32.50
2022-10-25T03:33:31.901Z,28.90
2022-10-25T03:35:59.987Z,24.57
2022-10-25T03:38:29.413Z,28.67
2022-10-25T03:40:57.514Z,27.70
2022-10-25T03:43:25.893Z,29.40
2022-10-25T03:45:54.307Z,31.13
2022-10-25T03:48:22.446Z,34.93
2022-10-25T03:50:50.545Z,32.53
2022-10-25T03:53:18.594Z,33.67
2022-10-25T03:55:48.202Z,36.70
2022-10-25T03:58:16.381Z,33.63
2022-10-25T04:00:44.574Z,31.93
2022-10-25T04:03:12.859Z,37.50
2022-10-25T04:05:40.954Z,42.50
2022-10-25T04:08:09.146Z,35.67
2022-10-25T04:10:37.250Z,37.80
2022-10-25T04:13:06.820Z,36.27
2022-10-25T04:15:34.911Z,32.50
2022-10-25T04:18:03.067Z,32.80
2022-10-25T04:20:31.143Z,34.27
2022-10-25T04:22:59.679Z,33.10
2022-10-25T04:25:29.686Z,38.37
2022-10-25T04:28:00.180Z,31.80
2022-10-25T04:30:31.955Z,35.63
2022-10-25T04:33:01.834Z,34.30
2022-10-25T04:35:29.929Z,35.43
2022-10-25T04:37:58.869Z,32.27
2022-10-25T04:40:27.184Z,29.47
2022-10-25T04:42:55.275Z,30.63
2022-10-25T04:45:23.398Z,29.80
2022-10-25T04:47:52.897Z,32.93
2022-10-25T04:50:21.207Z,37.53
2022-10-25T04:52:49.497Z,25.93
2022-10-25T04:55:17.998Z,34.33
2022-10-25T04:57:46.126Z,34.53
2022-10-25T05:00:15.476Z,38.90
2022-10-25T05:02:43.739Z,39.00
2022-10-25T05:05:13.253Z,31.00
2022-10-25T05:07:41.390Z,30.67
2022-10-25T05:10:10.427Z,36.53
2022-10-25T05:12:39.307Z,39.43
2022-10-25T05:15:09.306Z,34.57
2022-10-25T05:17:38.020Z,37.77
2022-10-25T05:20:07.836Z,35.67
2022-10-25T05:22:37.363Z,36.83
2022-10-25T05:25:06.591Z,35.70
2022-10-25T05:27:39.299Z,37.53
2022-10-25T05:30:09.126Z,36.80
2022-10-25T05:32:37.481Z,35.27
2022-10-25T05:35:06.644Z,39.00
2022-10-25T05:37:36.132Z,37.97
2022-10-25T05:40:04.737Z,44.40
2022-10-25T05:42:32.817Z,37.33
2022-10-25T05:45:00.931Z,38.07
2022-10-25T05:47:29.022Z,41.07
2022-10-25T05:49:57.446Z,36.67
2022-10-25T05:52:25.625Z,38.73
2022-10-25T05:54:55.127Z,31.70
2022-10-25T05:57:23.255Z,39.60
2022-10-25T05:59:51.395Z,37.43
2022-10-25T06:02:21.208Z,39.77
2022-10-25T06:04:52.320Z,42.73
2022-10-25T06:07:20.916Z,39.43
2022-10-25T06:09:49.506Z,39.07
2022-10-25T06:12:19.030Z,39.83
2022-10-25T06:14:47.069Z,38.47
2022-10-25T06:17:16.584Z,41.93
2022-10-25T06:19:44.741Z,35.20
2022-10-25T06:22:13.080Z,37.73
2022-10-25T06:24:41.169Z,34.87
2022-10-25T06:27:09.288Z,35.20
2022-10-25T06:29:38.796Z,36.43
2022-10-25T06:32:07.063Z,29.53
2022-10-25T06:34:35.150Z,34.37
2022-10-25T06:37:03.325Z,39.37
2022-10-25T06:39:31.401Z,33.63
2022-10-25T06:41:59.442Z,36.10
2022-10-25T06:44:27.593Z,33.80
2022-10-25T06:47:16.302Z,30.03
2022-10-25T06:49:44.889Z,25.87
2022-10-25T06:52:13.019Z,28.47
2022-10-25T06:54:41.093Z,25.27
2022-10-25T06:57:09.257Z,28.40
2022-10-25T06:59:37.345Z,25.57
2022-10-25T07:02:07.064Z,23.37
2022-10-25T07:04:35.247Z,29.00
2022-10-25T07:07:03.480Z,23.93
2022-10-25T07:09:31.716Z,23.47
2022-10-25T07:11:59.772Z,27.77
2022-10-25T07:14:27.927Z,27.27
2022-10-25T07:16:56.030Z,33.20
2022-10-25T07:19:25.704Z,26.63
2022-10-25T07:21:53.895Z,28.33
2022-10-25T07:24:22.306Z,25.67
2022-10-25T07:26:50.566Z,29.87
2022-10-25T07:29:18.691Z,29.57
2022-10-25T07:31:46.803Z,23.20
2022-10-25T07:34:16.543Z,28.93
2022-10-25T07:36:45.980Z,24.13
2022-10-25T07:39:15.378Z,27.53
2022-10-25T07:41:43.444Z,30.53
2022-10-25T07:44:16.088Z,24.50
2022-10-25T07:46:45.014Z,35.27
2022-10-25T07:49:13.148Z,28.23
2022-10-25T07:51:41.223Z,27.43
2022-10-25T07:54:11.473Z,23.63
2022-10-25T07:56:39.559Z,28.30
2022-10-25T07:59:07.717Z,29.23
2022-10-25T08:01:37.499Z,27.87
2022-10-25T08:04:06.250Z,32.80
2022-10-25T08:06:36.066Z,27.43
2022-10-25T08:09:14.374Z,32.60
2022-10-25T08:11:49.853Z,27.50
2022-10-25T08:14:18.021Z,22.37
2022-10-25T08:16:46.164Z,28.33
2022-10-25T08:19:14.263Z,26.70
2022-10-25T08:21:42.396Z,26.60
2022-10-25T08:24:11.002Z,25.83
2022-10-25T08:26:39.382Z,22.93
2022-10-25T08:29:08.896Z,27.80
2022-10-25T08:31:37.210Z,26.63
2022-10-25T08:34:05.637Z,22.00
2022-10-25T08:36:33.781Z,25.33
2022-10-25T08:39:02.423Z,31.43
2022-10-25T08:41:44.271Z,24.43
2022-10-25T08:44:34.134Z,26.23
2022-10-25T08:47:08.795Z,24.97
2022-10-25T08:49:46.929Z,29.03
2022-10-25T08:52:22.491Z,28.43
2022-10-25T08:54:51.248Z,25.10
2022-10-25T08:57:24.991Z,24.67
2022-10-25T08:59:57.508Z,25.27
2022-10-25T09:02:37.491Z,25.43
2022-10-25T09:05:14.065Z,17.67
2022-10-25T09:08:24.429Z,26.50
2022-10-25T09:10:59.839Z,22.63
2022-10-25T09:13:42.142Z,21.90
2022-10-25T09:16:17.677Z,19.53
2022-10-25T09:18:50.879Z,19.57
2022-10-25T09:21:24.235Z,20.83
2022-10-25T09:24:00.962Z,18.93
2022-10-25T09:26:42.606Z,18.57
2022-10-25T09:29:24.535Z,18.60
2022-10-25T09:31:59.343Z,15.47
2022-10-25T09:34:32.980Z,21.63
2022-10-25T09:37:10.698Z,19.37
2022-10-25T09:39:43.714Z,17.30
2022-10-25T09:42:24.675Z,16.30
2022-10-25T09:44:55.996Z,19.60
2022-10-25T09:47:38.848Z,14.27
2022-10-25T09:50:13.633Z,15.20
2022-10-25T09:52:50.347Z,18.20
2022-10-25T09:55:33.588Z,14.37
2022-10-25T09:58:04.142Z,17.57
2022-10-25T10:00:41.399Z,10.73
2022-10-25T10:03:13.345Z,17.37
2022-10-25T10:05:45.560Z,17.77
2022-10-25T10:08:13.760Z,11.40
2022-10-25T10:10:43.176Z,17.47
2022-10-25T10:13:19.495Z,9.80
2022-10-25T10:15:54.796Z,11.63
2022-10-25T10:18:30.649Z,10.27
2022-10-25T10:21:07.029Z,11.37
2022-10-25T10:23:45.450Z,9.03
2022-10-25T10:26:22.539Z,8.70
2022-10-25T10:28:53.523Z,9.50
2022-10-25T10:31:21.805Z,10.50
2022-10-25T10:33:52.741Z,11.70
2022-10-25T10:36:27.619Z,11.00
2022-10-25T10:39:20.230Z,9.20
2022-10-25T10:42:03.396Z,11.10
2022-10-25T10:44:34.776Z,12.20
2022-10-25T10:47:11.685Z,15.90
2022-10-25T10:49:43.362Z,11.50
2022-10-25T10:52:30.105Z,14.20
2022-10-25T10:54:59.589Z,9.93
2022-10-25T10:57:33.656Z,9.07
2022-10-25T11:00:02.859Z,11.90
2022-10-25T11:02:40.692Z,11.10
2022-10-25T11:05:24.662Z,17.50
2022-10-25T11:07:58.532Z,10.13
2022-10-25T11:10:35.017Z,9.37
2022-10-25T11:13:16.249Z,7.30
2022-10-25T11:16:33.918Z,7.70
2022-10-25T11:19:23.327Z,9.73
2022-10-25T11:22:07.468Z,10.30
2022-10-25T11:24:45.600Z,11.33
2022-10-25T11:27:22.545Z,9.03
2022-10-25T11:30:04.833Z,8.90
2022-10-25T11:33:13.512Z,9.23
2022-10-25T11:35:53.079Z,9.87
2022-10-25T11:38:32.908Z,9.45
2022-10-25T11:41:13.430Z,11.37
2022-10-25T11:43:59.922Z,9.83
2022-10-25T11:46:36.183Z,9.00
2022-10-25T11:49:23.394Z,8.33
2022-10-25T11:52:10.145Z,7.77
2022-10-25T11:54:46.391Z,8.57
2022-10-25T11:57:26.546Z,5.93
2022-10-25T12:00:06.817Z,8.40
2022-10-25T12:02:58.462Z,7.10
2022-10-25T12:05:34.687Z,7.30
2022-10-25T12:08:18.145Z,6.77
2022-10-25T12:10:52.230Z,8.07
2022-10-25T12:13:27.611Z,7.00
2022-10-25T12:15:58.833Z,8.53
2022-10-25T12:18:34.583Z,6.70
2022-10-25T12:21:03.732Z,7.10
2022-10-25T12:23:39.787Z,6.63
2022-10-25T12:26:18.712Z,7.83
2022-10-25T12:28:50.013Z,6.10
2022-10-25T12:31:21.732Z,8.43
2022-10-25T12:33:55.471Z,6.70
2022-10-25T12:36:32.557Z,8.73
2022-10-25T12:39:04.406Z,7.90
2022-10-25T12:41:38.308Z,8.13
2022-10-25T12:44:30.648Z,5.67
2022-10-25T12:47:21.692Z,3.53
2022-10-25T12:50:09.883Z,10.33
2022-10-25T12:52:41.047Z,9.00
2022-10-25T12:55:37.966Z,9.17
2022-10-25T12:58:35.071Z,9.37
2022-10-25T13:01:27.199Z,7.97
2022-10-25T13:04:33.074Z,8.97
2022-10-25T13:07:04.364Z,8.73
2022-10-25T13:09:35.982Z,5.53
2022-10-25T13:12:07.633Z,6.60
2022-10-25T13:14:40.235Z,6.30
2022-10-25T13:18:00.856Z,6.67
2022-10-25T13:20:53.200Z,8.37
2022-10-25T13:24:02.940Z,7.03
2022-10-25T13:27:24.532Z,6.40
2022-10-25T13:30:27.442Z,8.63
2022-10-25T13:33:33.754Z,6.90
2022-10-25T13:36:06.626Z,6.70
2022-10-25T13:38:39.725Z,8.83
2022-10-25T13:41:15.394Z,7.63
2022-10-25T13:44:02.308Z,8.00
2022-10-25T13:46:38.470Z,7.77
2022-10-25T13:49:38.992Z,6.93
2022-10-25T13:52:24.573Z,7.27
2022-10-25T13:54:56.419Z,9.73
2022-10-25T13:57:54.068Z,9.47
2022-10-25T14:00:37.137Z,8.50
2022-10-25T14:03:35.812Z,6.70
2022-10-25T14:06:13.973Z,6.30
2022-10-25T14:08:54.011Z,6.33
2022-10-25T14:11:28.210Z,8.33
2022-10-25T14:14:01.572Z,6.50
2022-10-25T14:16:33.508Z,7.40
2022-10-25T14:19:15.578Z,10.37
2022-10-25T14:21:47.849Z,5.10
2022-10-25T14:24:17.770Z,10.07
2022-10-25T14:26:55.675Z,7.83
2022-10-25T14:29:26.471Z,6.30
2022-10-25T14:31:55.686Z,6.60
2022-10-25T14:34:28.197Z,6.13
2022-10-25T14:36:58.505Z,7.37
2022-10-25T14:39:28.655Z,8.03
2022-10-25T14:41:59.063Z,5.60
2022-10-25T14:44:30.811Z,9.90
2022-10-25T14:47:01.041Z,9.00
2022-10-25T14:49:30.496Z,8.00
2022-10-25T14:52:01.798Z,5.73
2022-10-25T14:54:33.687Z,7.20
2022-10-25T14:57:04.789Z,8.17
2022-10-25T14:59:42.704Z,7.47
2022-10-25T15:02:19.345Z,7.57
2022-10-25T15:04:51.489Z,6.03
2022-10-25T15:07:24.310Z,13.00
2022-10-25T15:09:56.372Z,5.73
2022-10-25T15:12:26.205Z,9.70
2022-10-25T15:14:55.103Z,7.23
2022-10-25T15:17:30.749Z,9.07
2022-10-25T15:20:07.831Z,6.50
2022-10-25T15:22:46.376Z,8.17
2022-10-25T15:25:28.251Z,8.37
2022-10-25T15:27:56.725Z,7.13
2022-10-25T15:30:36.742Z,7.83
2022-10-25T15:33:09.883Z,7.67
2022-10-25T15:35:48.298Z,8.83
2022-10-25T15:38:17.462Z,10.17
2022-10-25T15:40:46.132Z,8.10
2022-10-25T15:43:14.660Z,8.13
2022-10-25T15:45:43.968Z,9.77
2022-10-25T15:48:16.815Z,7.40
2022-10-25T15:50:50.407Z,9.80
2022-10-25T15:53:18.959Z,8.47
2022-10-25T15:55:47.340Z,10.00
2022-10-25T15:58:15.449Z,9.67
2022-10-25T16:00:44.152Z,8.83
2022-10-25T16:03:19.639Z,7.80
2022-10-25T16:05:50.990Z,8.50
2022-10-25T16:08:19.297Z,9.20
2022-10-25T16:10:47.586Z,8.30
2022-10-25T16:13:22.829Z,7.80
2022-10-25T16:15:50.957Z,9.23
2022-10-25T16:18:19.181Z,9.00
2022-10-25T16:20:48.788Z,10.30
2022-10-25T16:23:18.536Z,8.07
2022-10-25T16:25:46.702Z,10.03
2022-10-25T16:28:15.385Z,11.50
2022-10-25T16:30:45.506Z,8.00
2022-10-25T16:33:13.744Z,11.90
2022-10-25T16:35:42.505Z,10.63
2022-10-25T16:38:11.979Z,12.60
2022-10-25T16:40:40.510Z,10.57
2022-10-25T16:43:12.274Z,11.43
2022-10-25T16:45:40.735Z,13.33
2022-10-25T16:48:08.878Z,10.03
2022-10-25T16:50:37.114Z,12.37
2022-10-25T16:53:09.153Z,13.03
2022-10-25T16:55:38.649Z,10.57
2022-10-25T16:58:06.907Z,11.73
2022-10-25T17:00:36.022Z,9.03
2022-10-25T17:03:06.364Z,14.43
2022-10-25T17:05:34.489Z,11.63
2022-10-25T17:08:02.828Z,11.03
2022-10-25T17:10:31.101Z,9.83
2022-10-25T17:13:03.433Z,13.67
2022-10-25T17:15:33.142Z,11.43
2022-10-25T17:18:01.253Z,12.10
2022-10-25T17:20:29.695Z,11.67
2022-10-25T17:22:57.906Z,16.00
2022-10-25T17:25:25.999Z,16.60
2022-10-25T17:27:55.042Z,11.67
2022-10-25T17:30:24.486Z,16.60
2022-10-25T17:32:53.278Z,10.10
2022-10-25T17:35:28.561Z,14.23
2022-10-25T17:37:58.303Z,11.03
2022-10-25T17:40:26.457Z,15.50
2022-10-25T17:42:55.019Z,11.47
2022-10-25T17:45:24.509Z,13.90
2022-10-25T17:47:52.633Z,15.17
2022-10-25T17:50:22.173Z,13.77
2022-10-25T17:52:51.681Z,15.57
2022-10-25T17:55:20.024Z,15.47
2022-10-25T17:57:48.444Z,16.67
2022-10-25T18:00:17.627Z,16.20
2022-10-25T18:02:50.560Z,13.83
2022-10-25T18:05:20.955Z,16.73
2022-10-25T18:07:50.277Z,17.83
2022-10-25T18:10:18.574Z,14.83
2022-10-25T18:12:47.070Z,15.30
2022-10-25T18:15:15.454Z,17.83
2022-10-25T18:17:46.304Z,16.63
2022-10-25T18:20:17.351Z,18.93
2022-10-25T18:22:45.782Z,15.17
2022-10-25T18:25:14.059Z,14.87
2022-10-25T18:27:42.125Z,18.07
2022-10-25T18:30:12.382Z,16.83
2022-10-25T18:32:40.454Z,14.50
2022-10-25T18:35:09.592Z,13.83
2022-10-25T18:37:39.025Z,17.13
2022-10-25T18:40:10.152Z,17.43
2022-10-25T18:42:38.670Z,22.07
2022-10-25T18:45:08.161Z,16.10
2022-10-25T18:47:36.386Z,19.80
2022-10-25T18:50:05.035Z,14.17
2022-10-25T18:52:34.344Z,13.10
2022-10-25T18:55:03.885Z,17.67
2022-10-25T18:57:32.003Z,19.40
2022-10-25T19:00:00.105Z,12.90
2022-10-25T19:02:28.414Z,17.20
2022-10-25T19:04:56.841Z,18.27
2022-10-25T19:07:25.090Z,17.20
2022-10-25T19:09:53.300Z,13.60
2022-10-25T19:12:22.765Z,18.50
2022-10-25T19:14:50.929Z,16.53
2022-10-25T19:17:19.023Z,19.33
2022-10-25T19:19:47.295Z,14.63
2022-10-25T19:22:15.756Z,18.70
2022-10-25T19:24:43.846Z,19.63
2022-10-25T19:27:11.989Z,18.03
2022-10-25T19:29:41.580Z,16.63
2022-10-25T19:32:09.784Z,16.60
2022-10-25T19:34:37.944Z,18.07
2022-10-25T19:37:07.878Z,18.67
2022-10-25T19:39:37.734Z,18.60
2022-10-25T19:42:06.157Z,20.47
2022-10-25T19:44:36.601Z,16.43
2022-10-25T19:47:06.677Z,16.27
2022-10-25T19:49:34.810Z,22.50
2022-10-25T19:52:03.139Z,15.80
2022-10-25T19:54:31.345Z,16.37
2022-10-25T19:56:59.492Z,20.50
2022-10-25T19:59:27.661Z,19.33
2022-10-25T20:01:55.992Z,18.20
2022-10-25T20:04:26.177Z,19.63
2022-10-25T20:06:54.315Z,20.23
2022-10-25T20:09:22.586Z,15.40
2022-10-25T20:11:50.718Z,18.03
2022-10-25T20:14:18.825Z,18.83
2022-10-25T20:16:46.901Z,15.87
2022-10-25T20:19:15.667Z,15.97
2022-10-25T20:21:45.271Z,17.37
2022-10-25T20:24:13.379Z,18.17
2022-10-25T20:26:44.575Z,15.67
2022-10-25T20:29:20.307Z,17.17
2022-10-25T20:31:50.406Z,18.33
2022-10-25T20:34:19.168Z,17.70
2022-10-25T20:36:51.441Z,16.40
2022-10-25T20:39:19.624Z,20.40
2022-10-25T20:41:47.751Z,18.23
2022-10-25T20:44:16.048Z,20.53
2022-10-25T20:46:44.236Z,17.07
2022-10-25T20:49:12.504Z,21.00
2022-10-25T20:51:40.869Z,16.77
2022-10-25T20:54:10.396Z,21.97
2022-10-25T20:56:39.660Z,19.37
2022-10-25T20:59:08.885Z,22.10
2022-10-25T21:01:37.482Z,22.40
2022-10-25T21:04:06.623Z,16.87
2022-10-25T21:06:34.786Z,18.63
2022-10-25T21:09:03.163Z,17.83
2022-10-25T21:11:32.768Z,22.37
2022-10-25T21:14:00.909Z,23.97
2022-10-25T21:16:29.308Z,18.80
2022-10-25T21:18:57.439Z,20.97
2022-10-25T21:21:25.592Z,23.13
2022-10-25T21:23:56.661Z,16.83
2022-10-25T21:26:25.097Z,17.50
2022-10-25T21:28:54.680Z,22.27
2022-10-25T21:31:22.849Z,20.17
2022-10-25T21:33:52.520Z,22.17
2022-10-25T21:36:22.604Z,19.87
2022-10-25T21:38:50.986Z,15.37
2022-10-25T21:41:26.537Z,21.13
2022-10-25T21:43:57.848Z,20.20
2022-10-25T21:46:28.224Z,19.17
2022-10-25T21:48:56.368Z,16.20
2022-10-25T21:51:25.581Z,21.67
2022-10-25T21:53:54.485Z,19.67
2022-10-25T21:56:30.561Z,23.40
2022-10-25T21:59:01.606Z,20.40
2022-10-25T22:01:31.638Z,21.17
2022-10-25T22:03:59.869Z,19.23
2022-10-25T22:06:28.916Z,26.83
2022-10-25T22:08:57.939Z,21.50
2022-10-25T22:11:28.141Z,22.13
2022-10-25T22:13:57.991Z,22.37
2022-10-25T22:16:28.666Z,18.73
2022-10-25T22:18:58.825Z,24.13
2022-10-25T22:21:29.391Z,21.77
2022-10-25T22:23:57.488Z,24.20
2022-10-25T22:26:25.993Z,32.73
2022-10-25T22:28:55.835Z,35.07
2022-10-25T22:31:24.673Z,33.57
2022-10-25T22:33:57.058Z,28.27
2022-10-25T22:36:27.159Z,35.67
2022-10-25T22:38:56.646Z,32.20
2022-10-25T22:41:27.566Z,29.20
2022-10-25T22:43:56.316Z,25.60
2022-10-25T22:46:26.688Z,23.60
2022-10-25T22:48:57.989Z,27.40
2022-10-25T22:51:28.743Z,26.27
2022-10-25T22:53:57.273Z,31.23
2022-10-25T22:56:30.735Z,23.77
2022-10-25T22:59:01.135Z,26.53
2022-10-25T23:01:31.827Z,24.07
2022-10-25T23:04:03.964Z,30.70
2022-10-25T23:06:34.146Z,24.23
2022-10-25T23:09:05.275Z,26.20
2022-10-25T23:11:36.136Z,29.50
2022-10-25T23:14:05.219Z,26.53
2022-10-25T23:16:33.470Z,25.23
2022-10-25T23:19:03.209Z,24.23
2022-10-25T23:21:31.600Z,25.80
2022-10-25T23:24:01.534Z,29.97
2022-10-25T23:26:32.530Z,29.00
2022-10-25T23:29:01.668Z,27.57
2022-10-25T23:31:31.052Z,28.00
2022-10-25T23:34:02.329Z,29.47
2022-10-25T23:36:37.203Z,33.57
2022-10-25T23:39:07.309Z,30.53
2022-10-25T23:41:35.366Z,28.80
2022-10-25T23:44:03.673Z,34.90
2022-10-25T23:46:31.773Z,33.47
2022-10-25T23:49:00.073Z,30.67
2022-10-25T23:51:29.557Z,27.87
2022-10-25T23:53:57.651Z,31.70
2022-10-25T23:56:25.950Z,32.27
2022-10-25T23:58:54.251Z,32.13
